sensor_id;sensor_type;location;lat;lon;timestamp;P1;durP1;ratioP1;P2;durP2;ratioP2
5454;SDS011;2750;49.050;9.250;2024-03-07T00:02:18;76.37;;;39.90;;
5454;SDS011;2750;49.050;9.250;2024-03-07T00:07:20;80.47;;;39.57;;
5454;SDS011;2750;49.050;9.250;2024-03-07T00:12:23;73.67;;;37.90;;
5454;SDS011;2750;49.050;9.250;2024-03-07T00:17:27;79.40;;;41.17;;
5454;SDS011;2750;49.050;9.250;2024-03-07T00:22:28;73.50;;;38.27;;
5454;SDS011;2750;49.050;9.250;2024-03-07T00:27:31;67.60;;;36.50;;
5454;SDS011;2750;49.050;9.250;2024-03-07T00:32:33;66.73;;;36.80;;
5454;SDS011;2750;49.050;9.250;2024-03-07T00:37:39;68.93;;;36.80;;
5454;SDS011;2750;49.050;9.250;2024-03-07T00:42:42;64.63;;;36.33;;
5454;SDS011;2750;49.050;9.250;2024-03-07T00:47:44;72.37;;;35.77;;
5454;SDS011;2750;49.050;9.250;2024-03-07T00:52:45;73.27;;;38.93;;
5454;SDS011;2750;49.050;9.250;2024-03-07T00:57:49;73.37;;;36.23;;
5454;SDS011;2750;49.050;9.250;2024-03-07T01:02:51;65.33;;;35.03;;
5454;SDS011;2750;49.050;9.250;2024-03-07T01:07:53;67.73;;;34.67;;
5454;SDS011;2750;49.050;9.250;2024-03-07T01:12:57;64.50;;;35.23;;
5454;SDS011;2750;49.050;9.250;2024-03-07T01:18:02;81.93;;;40.13;;
5454;SDS011;2750;49.050;9.250;2024-03-07T01:23:03;74.30;;;39.67;;
5454;SDS011;2750;49.050;9.250;2024-03-07T01:28:06;83.07;;;41.00;;
5454;SDS011;2750;49.050;9.250;2024-03-07T01:33:12;78.53;;;39.70;;
5454;SDS011;2750;49.050;9.250;2024-03-07T01:38:14;78.83;;;39.10;;
5454;SDS011;2750;49.050;9.250;2024-03-07T01:43:17;91.30;;;41.53;;
5454;SDS011;2750;49.050;9.250;2024-03-07T01:48:21;77.40;;;39.90;;
5454;SDS011;2750;49.050;9.250;2024-03-07T01:53:28;74.83;;;38.90;;
5454;SDS011;2750;49.050;9.250;2024-03-07T01:58:33;84.60;;;41.33;;
5454;SDS011;2750;49.050;9.250;2024-03-07T02:03:36;81.90;;;42.37;;
5454;SDS011;2750;49.050;9.250;2024-03-07T02:08:38;97.07;;;43.43;;
5454;SDS011;2750;49.050;9.250;2024-03-07T02:13:41;93.77;;;44.93;;
5454;SDS011;2750;49.050;9.250;2024-03-07T02:18:43;97.77;;;43.73;;
5454;SDS011;2750;49.050;9.250;2024-03-07T02:23:47;87.70;;;42.53;;
5454;SDS011;2750;49.050;9.250;2024-03-07T02:28:48;99.87;;;48.67;;
5454;SDS011;2750;49.050;9.250;2024-03-07T02:33:50;88.20;;;41.77;;
5454;SDS011;2750;49.050;9.250;2024-03-07T02:38:54;90.03;;;45.67;;
5454;SDS011;2750;49.050;9.250;2024-03-07T02:43:55;88.20;;;43.73;;
5454;SDS011;2750;49.050;9.250;2024-03-07T02:48:57;100.50;;;46.13;;
5454;SDS011;2750;49.050;9.250;2024-03-07T02:54:00;74.17;;;38.57;;
5454;SDS011;2750;49.050;9.250;2024-03-07T02:59:05;79.63;;;36.67;;
5454;SDS011;2750;49.050;9.250;2024-03-07T03:04:07;88.53;;;44.27;;
5454;SDS011;2750;49.050;9.250;2024-03-07T03:09:10;102.43;;;47.90;;
5454;SDS011;2750;49.050;9.250;2024-03-07T03:14:17;91.00;;;43.50;;
5454;SDS011;2750;49.050;9.250;2024-03-07T03:19:18;97.67;;;43.30;;
5454;SDS011;2750;49.050;9.250;2024-03-07T03:24:21;89.83;;;43.13;;
5454;SDS011;2750;49.050;9.250;2024-03-07T03:29:23;91.97;;;41.93;;
5454;SDS011;2750;49.050;9.250;2024-03-07T03:34:24;95.00;;;43.17;;
5454;SDS011;2750;49.050;9.250;2024-03-07T03:39:28;103.03;;;43.97;;
5454;SDS011;2750;49.050;9.250;2024-03-07T03:44:29;92.13;;;41.73;;
5454;SDS011;2750;49.050;9.250;2024-03-07T03:49:31;85.17;;;41.77;;
5454;SDS011;2750;49.050;9.250;2024-03-07T03:54:34;88.27;;;40.80;;
5454;SDS011;2750;49.050;9.250;2024-03-07T03:59:35;78.97;;;37.80;;
5454;SDS011;2750;49.050;9.250;2024-03-07T04:04:38;77.77;;;37.30;;
5454;SDS011;2750;49.050;9.250;2024-03-07T04:09:41;85.43;;;39.03;;
5454;SDS011;2750;49.050;9.250;2024-03-07T04:14:43;91.27;;;39.67;;
5454;SDS011;2750;49.050;9.250;2024-03-07T04:19:44;95.20;;;41.93;;
5454;SDS011;2750;49.050;9.250;2024-03-07T04:24:48;90.93;;;41.77;;
5454;SDS011;2750;49.050;9.250;2024-03-07T04:29:53;79.77;;;37.90;;
5454;SDS011;2750;49.050;9.250;2024-03-07T04:34:55;98.37;;;44.17;;
5454;SDS011;2750;49.050;9.250;2024-03-07T04:39:59;89.83;;;42.10;;
5454;SDS011;2750;49.050;9.250;2024-03-07T04:45:00;87.53;;;41.70;;
5454;SDS011;2750;49.050;9.250;2024-03-07T04:50:02;95.10;;;42.10;;
5454;SDS011;2750;49.050;9.250;2024-03-07T04:55:06;86.10;;;39.07;;
5454;SDS011;2750;49.050;9.250;2024-03-07T05:00:10;96.97;;;41.73;;
5454;SDS011;2750;49.050;9.250;2024-03-07T05:05:14;86.77;;;39.23;;
5454;SDS011;2750;49.050;9.250;2024-03-07T05:10:23;90.77;;;40.43;;
5454;SDS011;2750;49.050;9.250;2024-03-07T05:15:25;85.27;;;39.83;;
5454;SDS011;2750;49.050;9.250;2024-03-07T05:20:26;89.77;;;41.50;;
5454;SDS011;2750;49.050;9.250;2024-03-07T05:25:30;90.40;;;39.93;;
5454;SDS011;2750;49.050;9.250;2024-03-07T05:30:31;87.90;;;42.07;;
5454;SDS011;2750;49.050;9.250;2024-03-07T05:35:33;78.23;;;38.50;;
5454;SDS011;2750;49.050;9.250;2024-03-07T05:40:36;86.27;;;40.80;;
5454;SDS011;2750;49.050;9.250;2024-03-07T05:45:37;77.53;;;36.40;;
5454;SDS011;2750;49.050;9.250;2024-03-07T05:50:39;77.97;;;39.23;;
5454;SDS011;2750;49.050;9.250;2024-03-07T05:55:42;75.70;;;37.20;;
5454;SDS011;2750;49.050;9.250;2024-03-07T06:00:43;73.90;;;37.23;;
5454;SDS011;2750;49.050;9.250;2024-03-07T06:05:49;96.50;;;41.30;;
5454;SDS011;2750;49.050;9.250;2024-03-07T06:10:52;85.47;;;41.33;;
5454;SDS011;2750;49.050;9.250;2024-03-07T06:15:54;90.13;;;43.20;;
5454;SDS011;2750;49.050;9.250;2024-03-07T06:20:56;88.93;;;42.23;;
5454;SDS011;2750;49.050;9.250;2024-03-07T06:25:59;99.27;;;45.30;;
5454;SDS011;2750;49.050;9.250;2024-03-07T06:31:00;98.93;;;43.93;;
5454;SDS011;2750;49.050;9.250;2024-03-07T06:36:07;95.23;;;42.73;;
5454;SDS011;2750;49.050;9.250;2024-03-07T06:41:10;98.43;;;46.23;;
5454;SDS011;2750;49.050;9.250;2024-03-07T06:46:12;105.97;;;47.27;;
5454;SDS011;2750;49.050;9.250;2024-03-07T06:51:13;109.30;;;48.87;;
5454;SDS011;2750;49.050;9.250;2024-03-07T06:56:19;114.77;;;48.23;;
5454;SDS011;2750;49.050;9.250;2024-03-07T07:01:21;94.73;;;45.20;;
5454;SDS011;2750;49.050;9.250;2024-03-07T07:06:24;106.53;;;47.33;;
5454;SDS011;2750;49.050;9.250;2024-03-07T07:11:27;107.13;;;47.97;;
5454;SDS011;2750;49.050;9.250;2024-03-07T07:16:29;93.00;;;47.50;;
5454;SDS011;2750;49.050;9.250;2024-03-07T07:21:31;91.33;;;45.53;;
5454;SDS011;2750;49.050;9.250;2024-03-07T07:26:34;110.70;;;47.47;;
5454;SDS011;2750;49.050;9.250;2024-03-07T07:31:35;102.27;;;45.43;;
5454;SDS011;2750;49.050;9.250;2024-03-07T07:36:37;93.83;;;46.03;;
5454;SDS011;2750;49.050;9.250;2024-03-07T07:41:40;95.37;;;44.63;;
5454;SDS011;2750;49.050;9.250;2024-03-07T07:46:41;96.77;;;43.97;;
5454;SDS011;2750;49.050;9.250;2024-03-07T07:51:43;90.20;;;43.63;;
5454;SDS011;2750;49.050;9.250;2024-03-07T07:56:47;92.53;;;45.20;;
5454;SDS011;2750;49.050;9.250;2024-03-07T08:01:48;82.23;;;41.27;;
5454;SDS011;2750;49.050;9.250;2024-03-07T08:06:53;70.47;;;37.73;;
5454;SDS011;2750;49.050;9.250;2024-03-07T08:11:55;69.33;;;36.17;;
5454;SDS011;2750;49.050;9.250;2024-03-07T08:16:57;66.37;;;36.87;;
5454;SDS011;2750;49.050;9.250;2024-03-07T08:21:59;70.43;;;34.20;;
5454;SDS011;2750;49.050;9.250;2024-03-07T08:27:01;61.40;;;33.73;;
5454;SDS011;2750;49.050;9.250;2024-03-07T08:32:04;64.00;;;34.37;;
5454;SDS011;2750;49.050;9.250;2024-03-07T08:37:06;55.20;;;33.00;;
5454;SDS011;2750;49.050;9.250;2024-03-07T08:42:09;52.20;;;31.07;;
5454;SDS011;2750;49.050;9.250;2024-03-07T08:47:11;46.13;;;29.80;;
5454;SDS011;2750;49.050;9.250;2024-03-07T08:52:12;47.77;;;30.37;;
5454;SDS011;2750;49.050;9.250;2024-03-07T08:57:15;45.70;;;30.13;;
5454;SDS011;2750;49.050;9.250;2024-03-07T09:02:18;37.93;;;26.87;;
5454;SDS011;2750;49.050;9.250;2024-03-07T09:07:19;35.33;;;26.13;;
5454;SDS011;2750;49.050;9.250;2024-03-07T09:12:22;30.60;;;24.20;;
5454;SDS011;2750;49.050;9.250;2024-03-07T09:17:25;30.10;;;24.10;;
5454;SDS011;2750;49.050;9.250;2024-03-07T09:22:26;28.07;;;20.80;;
5454;SDS011;2750;49.050;9.250;2024-03-07T09:27:31;29.60;;;21.47;;
5454;SDS011;2750;49.050;9.250;2024-03-07T09:32:32;26.83;;;20.80;;
5454;SDS011;2750;49.050;9.250;2024-03-07T09:37:34;28.43;;;20.47;;
5454;SDS011;2750;49.050;9.250;2024-03-07T09:42:38;27.63;;;20.10;;
5454;SDS011;2750;49.050;9.250;2024-03-07T09:47:44;24.10;;;20.47;;
5454;SDS011;2750;49.050;9.250;2024-03-07T09:52:48;24.57;;;19.50;;
5454;SDS011;2750;49.050;9.250;2024-03-07T09:57:51;23.77;;;19.40;;
5454;SDS011;2750;49.050;9.250;2024-03-07T10:02:56;22.57;;;19.30;;
5454;SDS011;2750;49.050;9.250;2024-03-07T10:07:59;27.50;;;20.47;;
5454;SDS011;2750;49.050;9.250;2024-03-07T10:13:02;26.30;;;19.93;;
5454;SDS011;2750;49.050;9.250;2024-03-07T10:18:06;26.13;;;20.90;;
5454;SDS011;2750;49.050;9.250;2024-03-07T10:23:09;26.60;;;18.67;;
5454;SDS011;2750;49.050;9.250;2024-03-07T10:28:12;27.27;;;20.43;;
5454;SDS011;2750;49.050;9.250;2024-03-07T10:33:14;24.57;;;18.57;;
5454;SDS011;2750;49.050;9.250;2024-03-07T10:38:16;27.27;;;18.50;;
5454;SDS011;2750;49.050;9.250;2024-03-07T10:43:20;25.30;;;18.30;;
5454;SDS011;2750;49.050;9.250;2024-03-07T10:48:24;27.47;;;19.10;;
5454;SDS011;2750;49.050;9.250;2024-03-07T10:53:31;24.77;;;17.53;;
5454;SDS011;2750;49.050;9.250;2024-03-07T10:58:42;23.03;;;16.83;;
5454;SDS011;2750;49.050;9.250;2024-03-07T11:03:53;26.37;;;20.70;;
5454;SDS011;2750;49.050;9.250;2024-03-07T11:08:57;23.93;;;17.97;;
5454;SDS011;2750;49.050;9.250;2024-03-07T11:14:00;24.97;;;19.57;;
5454;SDS011;2750;49.050;9.250;2024-03-07T11:19:19;25.47;;;18.53;;
5454;SDS011;2750;49.050;9.250;2024-03-07T11:24:24;28.47;;;20.17;;
5454;SDS011;2750;49.050;9.250;2024-03-07T11:29:42;26.47;;;20.03;;
5454;SDS011;2750;49.050;9.250;2024-03-07T11:34:47;28.07;;;19.97;;
5454;SDS011;2750;49.050;9.250;2024-03-07T11:39:50;25.83;;;19.93;;
5454;SDS011;2750;49.050;9.250;2024-03-07T11:44:55;27.40;;;20.30;;
5454;SDS011;2750;49.050;9.250;2024-03-07T11:49:57;27.97;;;19.63;;
5454;SDS011;2750;49.050;9.250;2024-03-07T11:54:58;25.23;;;19.77;;
5454;SDS011;2750;49.050;9.250;2024-03-07T12:00:06;28.03;;;21.10;;
5454;SDS011;2750;49.050;9.250;2024-03-07T12:05:13;24.37;;;18.77;;
5454;SDS011;2750;49.050;9.250;2024-03-07T12:10:16;23.13;;;17.80;;
5454;SDS011;2750;49.050;9.250;2024-03-07T12:15:26;23.77;;;19.30;;
5454;SDS011;2750;49.050;9.250;2024-03-07T12:20:28;23.73;;;18.57;;
5454;SDS011;2750;49.050;9.250;2024-03-07T12:25:33;24.87;;;20.40;;
5454;SDS011;2750;49.050;9.250;2024-03-07T12:30:37;26.57;;;20.73;;
5454;SDS011;2750;49.050;9.250;2024-03-07T12:35:51;26.73;;;19.60;;
5454;SDS011;2750;49.050;9.250;2024-03-07T12:41:03;27.93;;;20.60;;
5454;SDS011;2750;49.050;9.250;2024-03-07T12:46:14;27.33;;;21.47;;
5454;SDS011;2750;49.050;9.250;2024-03-07T12:51:18;26.30;;;18.73;;
5454;SDS011;2750;49.050;9.250;2024-03-07T12:56:22;26.50;;;20.73;;
5454;SDS011;2750;49.050;9.250;2024-03-07T13:01:25;25.77;;;20.00;;
5454;SDS011;2750;49.050;9.250;2024-03-07T13:06:27;26.40;;;21.17;;
5454;SDS011;2750;49.050;9.250;2024-03-07T13:11:29;23.60;;;19.03;;
5454;SDS011;2750;49.050;9.250;2024-03-07T13:16:33;27.40;;;19.77;;
5454;SDS011;2750;49.050;9.250;2024-03-07T13:21:35;24.40;;;18.20;;
5454;SDS011;2750;49.050;9.250;2024-03-07T13:26:37;24.33;;;18.60;;
5454;SDS011;2750;49.050;9.250;2024-03-07T13:31:40;25.20;;;20.47;;
5454;SDS011;2750;49.050;9.250;2024-03-07T13:36:44;25.53;;;20.20;;
5454;SDS011;2750;49.050;9.250;2024-03-07T13:41:46;25.53;;;19.70;;
5454;SDS011;2750;49.050;9.250;2024-03-07T13:46:49;22.70;;;18.07;;
5454;SDS011;2750;49.050;9.250;2024-03-07T13:51:53;23.23;;;18.20;;
5454;SDS011;2750;49.050;9.250;2024-03-07T13:57:13;25.40;;;19.17;;
5454;SDS011;2750;49.050;9.250;2024-03-07T14:02:34;27.90;;;20.67;;
5454;SDS011;2750;49.050;9.250;2024-03-07T14:07:53;28.27;;;21.30;;
5454;SDS011;2750;49.050;9.250;2024-03-07T14:13:22;26.20;;;19.17;;
5454;SDS011;2750;49.050;9.250;2024-03-07T14:24:43;25.77;;;18.97;;
5454;SDS011;2750;49.050;9.250;2024-03-07T14:30:07;26.30;;;19.83;;
5454;SDS011;2750;49.050;9.250;2024-03-07T14:35:23;23.57;;;17.87;;
5454;SDS011;2750;49.050;9.250;2024-03-07T14:40:30;27.27;;;20.00;;
5454;SDS011;2750;49.050;9.250;2024-03-07T14:45:36;26.33;;;20.10;;
5454;SDS011;2750;49.050;9.250;2024-03-07T14:50:40;29.47;;;20.10;;
5454;SDS011;2750;49.050;9.250;2024-03-07T14:55:46;27.13;;;19.77;;
5454;SDS011;2750;49.050;9.250;2024-03-07T15:00:48;24.20;;;17.37;;
5454;SDS011;2750;49.050;9.250;2024-03-07T15:05:51;28.87;;;20.73;;
5454;SDS011;2750;49.050;9.250;2024-03-07T15:10:55;27.20;;;19.53;;
5454;SDS011;2750;49.050;9.250;2024-03-07T15:16:04;21.60;;;17.47;;
5454;SDS011;2750;49.050;9.250;2024-03-07T15:21:06;22.67;;;17.30;;
5454;SDS011;2750;49.050;9.250;2024-03-07T15:26:11;23.17;;;17.67;;
5454;SDS011;2750;49.050;9.250;2024-03-07T15:31:12;23.87;;;17.27;;
5454;SDS011;2750;49.050;9.250;2024-03-07T15:36:19;22.93;;;18.07;;
5454;SDS011;2750;49.050;9.250;2024-03-07T15:41:23;24.27;;;18.33;;
5454;SDS011;2750;49.050;9.250;2024-03-07T15:46:24;20.53;;;16.97;;
5454;SDS011;2750;49.050;9.250;2024-03-07T15:51:26;23.00;;;16.90;;
5454;SDS011;2750;49.050;9.250;2024-03-07T15:56:30;20.77;;;17.47;;
5454;SDS011;2750;49.050;9.250;2024-03-07T16:01:32;20.53;;;16.47;;
5454;SDS011;2750;49.050;9.250;2024-03-07T16:06:33;21.47;;;16.67;;
5454;SDS011;2750;49.050;9.250;2024-03-07T16:11:36;20.13;;;15.27;;
5454;SDS011;2750;49.050;9.250;2024-03-07T16:16:39;19.87;;;15.27;;
5454;SDS011;2750;49.050;9.250;2024-03-07T16:21:44;20.80;;;16.17;;
5454;SDS011;2750;49.050;9.250;2024-03-07T16:26:47;20.10;;;16.13;;
5454;SDS011;2750;49.050;9.250;2024-03-07T16:31:49;20.90;;;16.03;;
5454;SDS011;2750;49.050;9.250;2024-03-07T16:36:50;19.43;;;14.80;;
5454;SDS011;2750;49.050;9.250;2024-03-07T16:41:55;20.90;;;15.90;;
5454;SDS011;2750;49.050;9.250;2024-03-07T16:46:57;22.00;;;17.63;;
5454;SDS011;2750;49.050;9.250;2024-03-07T16:51:58;20.90;;;16.73;;
5454;SDS011;2750;49.050;9.250;2024-03-07T16:57:01;20.70;;;16.07;;
5454;SDS011;2750;49.050;9.250;2024-03-07T17:02:06;21.37;;;16.17;;
5454;SDS011;2750;49.050;9.250;2024-03-07T17:07:10;21.27;;;15.70;;
5454;SDS011;2750;49.050;9.250;2024-03-07T17:12:13;19.53;;;15.07;;
5454;SDS011;2750;49.050;9.250;2024-03-07T17:17:15;16.97;;;13.23;;
5454;SDS011;2750;49.050;9.250;2024-03-07T17:22:16;19.13;;;13.97;;
5454;SDS011;2750;49.050;9.250;2024-03-07T17:27:20;22.47;;;15.00;;
5454;SDS011;2750;49.050;9.250;2024-03-07T17:32:22;15.83;;;12.57;;
5454;SDS011;2750;49.050;9.250;2024-03-07T17:37:23;17.77;;;13.17;;
5454;SDS011;2750;49.050;9.250;2024-03-07T17:42:26;17.37;;;13.27;;
5454;SDS011;2750;49.050;9.250;2024-03-07T17:47:29;19.77;;;16.40;;
5454;SDS011;2750;49.050;9.250;2024-03-07T17:52:31;19.20;;;14.70;;
5454;SDS011;2750;49.050;9.250;2024-03-07T17:57:36;15.03;;;12.47;;
5454;SDS011;2750;49.050;9.250;2024-03-07T18:02:37;21.07;;;15.47;;
5454;SDS011;2750;49.050;9.250;2024-03-07T18:07:40;17.63;;;14.73;;
5454;SDS011;2750;49.050;9.250;2024-03-07T18:12:45;17.87;;;13.90;;
5454;SDS011;2750;49.050;9.250;2024-03-07T18:17:49;22.83;;;15.50;;
5454;SDS011;2750;49.050;9.250;2024-03-07T18:22:56;19.80;;;14.53;;
5454;SDS011;2750;49.050;9.250;2024-03-07T18:27:59;31.50;;;20.17;;
5454;SDS011;2750;49.050;9.250;2024-03-07T18:33:03;22.43;;;17.57;;
5454;SDS011;2750;49.050;9.250;2024-03-07T18:38:08;22.10;;;14.13;;
5454;SDS011;2750;49.050;9.250;2024-03-07T18:43:11;21.73;;;15.00;;
5454;SDS011;2750;49.050;9.250;2024-03-07T18:48:12;19.57;;;13.40;;
5454;SDS011;2750;49.050;9.250;2024-03-07T18:53:14;18.20;;;14.13;;
5454;SDS011;2750;49.050;9.250;2024-03-07T18:58:19;20.07;;;14.90;;
5454;SDS011;2750;49.050;9.250;2024-03-07T19:03:22;18.10;;;13.77;;
5454;SDS011;2750;49.050;9.250;2024-03-07T19:08:23;22.47;;;15.97;;
5454;SDS011;2750;49.050;9.250;2024-03-07T19:13:30;18.93;;;14.80;;
5454;SDS011;2750;49.050;9.250;2024-03-07T19:18:34;19.53;;;13.80;;
5454;SDS011;2750;49.050;9.250;2024-03-07T19:23:37;18.03;;;13.97;;
5454;SDS011;2750;49.050;9.250;2024-03-07T19:28:45;20.63;;;15.20;;
5454;SDS011;2750;49.050;9.250;2024-03-07T19:33:47;20.77;;;15.17;;
5454;SDS011;2750;49.050;9.250;2024-03-07T19:38:51;24.00;;;16.47;;
5454;SDS011;2750;49.050;9.250;2024-03-07T19:43:54;21.63;;;15.50;;
5454;SDS011;2750;49.050;9.250;2024-03-07T19:48:55;20.77;;;15.47;;
5454;SDS011;2750;49.050;9.250;2024-03-07T19:53:57;21.60;;;16.33;;
5454;SDS011;2750;49.050;9.250;2024-03-07T19:59:00;19.87;;;14.77;;
5454;SDS011;2750;49.050;9.250;2024-03-07T20:04:01;22.67;;;17.40;;
5454;SDS011;2750;49.050;9.250;2024-03-07T20:09:04;19.23;;;14.83;;
5454;SDS011;2750;49.050;9.250;2024-03-07T20:14:07;20.87;;;15.57;;
5454;SDS011;2750;49.050;9.250;2024-03-07T20:19:08;21.03;;;15.77;;
5454;SDS011;2750;49.050;9.250;2024-03-07T20:24:12;26.43;;;17.53;;
5454;SDS011;2750;49.050;9.250;2024-03-07T20:29:16;21.37;;;16.10;;
5454;SDS011;2750;49.050;9.250;2024-03-07T20:34:17;21.30;;;14.57;;
5454;SDS011;2750;49.050;9.250;2024-03-07T20:39:20;19.40;;;14.97;;
5454;SDS011;2750;49.050;9.250;2024-03-07T20:44:28;23.27;;;18.20;;
5454;SDS011;2750;49.050;9.250;2024-03-07T20:49:29;23.50;;;17.17;;
5454;SDS011;2750;49.050;9.250;2024-03-07T20:54:31;21.17;;;15.83;;
5454;SDS011;2750;49.050;9.250;2024-03-07T20:59:34;20.87;;;16.27;;
5454;SDS011;2750;49.050;9.250;2024-03-07T21:04:36;23.60;;;16.80;;
5454;SDS011;2750;49.050;9.250;2024-03-07T21:09:38;19.10;;;15.53;;
5454;SDS011;2750;49.050;9.250;2024-03-07T21:14:41;22.97;;;16.30;;
5454;SDS011;2750;49.050;9.250;2024-03-07T21:19:43;20.03;;;16.07;;
5454;SDS011;2750;49.050;9.250;2024-03-07T21:24:45;21.77;;;17.00;;
5454;SDS011;2750;49.050;9.250;2024-03-07T21:29:48;25.73;;;16.27;;
5454;SDS011;2750;49.050;9.250;2024-03-07T21:34:50;23.27;;;15.87;;
5454;SDS011;2750;49.050;9.250;2024-03-07T21:39:58;23.43;;;16.63;;
5454;SDS011;2750;49.050;9.250;2024-03-07T21:45:07;24.70;;;16.77;;
5454;SDS011;2750;49.050;9.250;2024-03-07T21:50:14;25.00;;;16.93;;
5454;SDS011;2750;49.050;9.250;2024-03-07T21:55:20;24.07;;;16.33;;
5454;SDS011;2750;49.050;9.250;2024-03-07T22:00:25;22.53;;;15.73;;
5454;SDS011;2750;49.050;9.250;2024-03-07T22:05:33;23.60;;;17.10;;
5454;SDS011;2750;49.050;9.250;2024-03-07T22:10:44;22.40;;;15.73;;
5454;SDS011;2750;49.050;9.250;2024-03-07T22:15:49;24.73;;;16.73;;
5454;SDS011;2750;49.050;9.250;2024-03-07T22:20:56;23.53;;;18.00;;
5454;SDS011;2750;49.050;9.250;2024-03-07T22:25:59;24.07;;;17.20;;
5454;SDS011;2750;49.050;9.250;2024-03-07T22:31:07;22.30;;;16.20;;
5454;SDS011;2750;49.050;9.250;2024-03-07T22:36:11;22.90;;;15.97;;
5454;SDS011;2750;49.050;9.250;2024-03-07T22:41:22;24.67;;;17.23;;
5454;SDS011;2750;49.050;9.250;2024-03-07T22:46:36;25.10;;;15.97;;
5454;SDS011;2750;49.050;9.250;2024-03-07T22:51:49;24.67;;;17.17;;
5454;SDS011;2750;49.050;9.250;2024-03-07T22:56:54;24.90;;;17.33;;
5454;SDS011;2750;49.050;9.250;2024-03-07T23:02:01;23.33;;;16.17;;
5454;SDS011;2750;49.050;9.250;2024-03-07T23:07:06;23.47;;;16.13;;
5454;SDS011;2750;49.050;9.250;2024-03-07T23:12:14;25.57;;;15.90;;
5454;SDS011;2750;49.050;9.250;2024-03-07T23:17:23;22.63;;;16.43;;
5454;SDS011;2750;49.050;9.250;2024-03-07T23:22:26;24.90;;;16.83;;
5454;SDS011;2750;49.050;9.250;2024-03-07T23:27:32;24.47;;;16.80;;
5454;SDS011;2750;49.050;9.250;2024-03-07T23:32:39;25.00;;;15.90;;
5454;SDS011;2750;49.050;9.250;2024-03-07T23:37:53;23.50;;;16.17;;
5454;SDS011;2750;49.050;9.250;2024-03-07T23:43:05;22.43;;;16.23;;
5454;SDS011;2750;49.050;9.250;2024-03-07T23:48:18;22.77;;;16.07;;
5454;SDS011;2750;49.050;9.250;2024-03-07T23:53:20;25.50;;;16.83;;
5454;SDS011;2750;49.050;9.250;2024-03-07T23:58:26;27.50;;;17.60;;
